sensor_id;sensor_type;location;lat;lon;timestamp;temperature;humidity
51305;HTU21D;37392;50.964;6.952;2024-02-23T00:01:36;6.94;96.02
51305;HTU21D;37392;50.964;6.952;2024-02-23T00:04:02;6.86;97.00
51305;HTU21D;37392;50.964;6.952;2024-02-23T00:06:28;6.80;96.49
51305;HTU21D;37392;50.964;6.952;2024-02-23T00:08:54;6.69;97.93
51305;HTU21D;37392;50.964;6.952;2024-02-23T00:11:21;6.60;98.14
51305;HTU21D;37392;50.964;6.952;2024-02-23T00:13:46;6.63;98.64
51305;HTU21D;37392;50.964;6.952;2024-02-23T00:16:12;6.63;98.23
51305;HTU21D;37392;50.964;6.952;2024-02-23T00:18:38;6.66;97.84
51305;HTU21D;37392;50.964;6.952;2024-02-23T00:21:04;6.74;100.19
51305;HTU21D;37392;50.964;6.952;2024-02-23T00:23:29;6.65;102.70
51305;HTU21D;37392;50.964;6.952;2024-02-23T00:25:55;6.49;104.89
51305;HTU21D;37392;50.964;6.952;2024-02-23T00:28:21;6.27;105.67
51305;HTU21D;37392;50.964;6.952;2024-02-23T00:30:46;6.14;105.46
51305;HTU21D;37392;50.964;6.952;2024-02-23T00:33:12;6.08;105.42
51305;HTU21D;37392;50.964;6.952;2024-02-23T00:35:37;5.96;105.72
51305;HTU21D;37392;50.964;6.952;2024-02-23T00:38:03;5.91;105.61
51305;HTU21D;37392;50.964;6.952;2024-02-23T00:40:29;5.79;106.11
51305;HTU21D;37392;50.964;6.952;2024-02-23T00:42:54;5.67;107.06
51305;HTU21D;37392;50.964;6.952;2024-02-23T00:45:20;5.60;107.20
51305;HTU21D;37392;50.964;6.952;2024-02-23T00:47:46;5.57;107.27
51305;HTU21D;37392;50.964;6.952;2024-02-23T00:50:12;5.60;107.46
51305;HTU21D;37392;50.964;6.952;2024-02-23T00:52:38;5.54;107.56
51305;HTU21D;37392;50.964;6.952;2024-02-23T00:55:04;5.47;107.82
51305;HTU21D;37392;50.964;6.952;2024-02-23T00:57:30;5.49;107.40
51305;HTU21D;37392;50.964;6.952;2024-02-23T00:59:58;5.48;107.13
51305;HTU21D;37392;50.964;6.952;2024-02-23T01:02:24;5.39;107.64
51305;HTU21D;37392;50.964;6.952;2024-02-23T01:04:50;5.41;106.92
51305;HTU21D;37392;50.964;6.952;2024-02-23T01:07:15;5.53;105.57
51305;HTU21D;37392;50.964;6.952;2024-02-23T01:09:41;5.43;105.41
51305;HTU21D;37392;50.964;6.952;2024-02-23T01:12:06;5.35;105.64
51305;HTU21D;37392;50.964;6.952;2024-02-23T01:14:32;5.38;105.23
51305;HTU21D;37392;50.964;6.952;2024-02-23T01:16:57;5.38;104.22
51305;HTU21D;37392;50.964;6.952;2024-02-23T01:19:23;5.33;104.49
51305;HTU21D;37392;50.964;6.952;2024-02-23T01:21:49;5.35;104.87
51305;HTU21D;37392;50.964;6.952;2024-02-23T01:24:20;5.28;104.04
51305;HTU21D;37392;50.964;6.952;2024-02-23T01:26:46;5.23;104.34
51305;HTU21D;37392;50.964;6.952;2024-02-23T01:29:11;5.19;104.68
51305;HTU21D;37392;50.964;6.952;2024-02-23T01:31:37;5.15;104.82
51305;HTU21D;37392;50.964;6.952;2024-02-23T01:34:03;5.09;105.30
51305;HTU21D;37392;50.964;6.952;2024-02-23T01:36:28;5.15;105.40
51305;HTU21D;37392;50.964;6.952;2024-02-23T01:38:54;5.20;104.88
51305;HTU21D;37392;50.964;6.952;2024-02-23T01:41:20;5.25;104.33
51305;HTU21D;37392;50.964;6.952;2024-02-23T01:43:45;5.20;104.63
51305;HTU21D;37392;50.964;6.952;2024-02-23T01:46:11;5.19;104.44
51305;HTU21D;37392;50.964;6.952;2024-02-23T01:48:36;5.23;104.22
51305;HTU21D;37392;50.964;6.952;2024-02-23T01:51:02;5.15;103.94
51305;HTU21D;37392;50.964;6.952;2024-02-23T01:53:28;5.05;104.70
51305;HTU21D;37392;50.964;6.952;2024-02-23T01:55:54;5.10;104.72
51305;HTU21D;37392;50.964;6.952;2024-02-23T01:58:20;5.12;104.29
51305;HTU21D;37392;50.964;6.952;2024-02-23T02:00:46;5.13;104.09
51305;HTU21D;37392;50.964;6.952;2024-02-23T02:03:12;5.12;103.58
51305;HTU21D;37392;50.964;6.952;2024-02-23T02:05:37;5.19;103.12
51305;HTU21D;37392;50.964;6.952;2024-02-23T02:08:04;5.04;103.21
51305;HTU21D;37392;50.964;6.952;2024-02-23T02:10:29;4.97;103.17
51305;HTU21D;37392;50.964;6.952;2024-02-23T02:12:55;5.01;103.18
51305;HTU21D;37392;50.964;6.952;2024-02-23T02:15:20;5.03;102.54
51305;HTU21D;37392;50.964;6.952;2024-02-23T02:17:47;5.05;102.35
51305;HTU21D;37392;50.964;6.952;2024-02-23T02:20:13;5.01;102.28
51305;HTU21D;37392;50.964;6.952;2024-02-23T02:22:39;4.94;102.95
51305;HTU21D;37392;50.964;6.952;2024-02-23T02:25:06;4.93;102.06
51305;HTU21D;37392;50.964;6.952;2024-02-23T02:27:32;4.88;102.67
51305;HTU21D;37392;50.964;6.952;2024-02-23T02:29:58;4.76;103.09
51305;HTU21D;37392;50.964;6.952;2024-02-23T02:32:23;4.71;103.37
51305;HTU21D;37392;50.964;6.952;2024-02-23T02:34:49;4.74;102.95
51305;HTU21D;37392;50.964;6.952;2024-02-23T02:37:15;4.75;102.92
51305;HTU21D;37392;50.964;6.952;2024-02-23T02:39:41;4.64;103.76
51305;HTU21D;37392;50.964;6.952;2024-02-23T02:42:06;4.62;104.12
51305;HTU21D;37392;50.964;6.952;2024-02-23T02:44:32;4.53;104.36
51305;HTU21D;37392;50.964;6.952;2024-02-23T02:46:58;4.48;104.56
51305;HTU21D;37392;50.964;6.952;2024-02-23T02:49:23;4.53;103.99
51305;HTU21D;37392;50.964;6.952;2024-02-23T02:51:49;4.60;104.05
51305;HTU21D;37392;50.964;6.952;2024-02-23T02:54:15;4.61;103.33
51305;HTU21D;37392;50.964;6.952;2024-02-23T02:56:45;4.50;103.50
51305;HTU21D;37392;50.964;6.952;2024-02-23T02:59:12;4.54;103.05
51305;HTU21D;37392;50.964;6.952;2024-02-23T03:01:39;4.53;102.93
51305;HTU21D;37392;50.964;6.952;2024-02-23T03:04:05;4.52;103.47
51305;HTU21D;37392;50.964;6.952;2024-02-23T03:06:30;4.50;103.05
51305;HTU21D;37392;50.964;6.952;2024-02-23T03:08:56;4.46;103.26
51305;HTU21D;37392;50.964;6.952;2024-02-23T03:11:21;4.41;103.27
51305;HTU21D;37392;50.964;6.952;2024-02-23T03:13:47;4.37;103.57
51305;HTU21D;37392;50.964;6.952;2024-02-23T03:16:20;4.35;103.64
51305;HTU21D;37392;50.964;6.952;2024-02-23T03:18:48;4.33;103.14
51305;HTU21D;37392;50.964;6.952;2024-02-23T03:21:14;4.26;103.12
51305;HTU21D;37392;50.964;6.952;2024-02-23T03:23:40;4.24;103.32
51305;HTU21D;37392;50.964;6.952;2024-02-23T03:26:07;4.27;102.86
51305;HTU21D;37392;50.964;6.952;2024-02-23T03:28:33;4.26;102.86
51305;HTU21D;37392;50.964;6.952;2024-02-23T03:31:00;4.18;102.74
51305;HTU21D;37392;50.964;6.952;2024-02-23T03:33:25;4.12;103.09
51305;HTU21D;37392;50.964;6.952;2024-02-23T03:35:51;4.07;103.09
51305;HTU21D;37392;50.964;6.952;2024-02-23T03:38:16;4.13;103.26
51305;HTU21D;37392;50.964;6.952;2024-02-23T03:40:42;4.05;102.92
51305;HTU21D;37392;50.964;6.952;2024-02-23T03:43:07;4.02;103.02
51305;HTU21D;37392;50.964;6.952;2024-02-23T03:45:33;3.95;103.63
51305;HTU21D;37392;50.964;6.952;2024-02-23T03:48:03;3.89;104.14
51305;HTU21D;37392;50.964;6.952;2024-02-23T03:50:30;3.91;103.99
51305;HTU21D;37392;50.964;6.952;2024-02-23T03:52:55;3.87;103.97
51305;HTU21D;37392;50.964;6.952;2024-02-23T03:55:21;3.88;103.95
51305;HTU21D;37392;50.964;6.952;2024-02-23T03:57:47;3.94;103.71
51305;HTU21D;37392;50.964;6.952;2024-02-23T04:00:13;3.92;103.85
51305;HTU21D;37392;50.964;6.952;2024-02-23T04:02:40;3.91;104.15
51305;HTU21D;37392;50.964;6.952;2024-02-23T04:05:06;4.12;104.15
51305;HTU21D;37392;50.964;6.952;2024-02-23T04:07:32;4.37;103.21
51305;HTU21D;37392;50.964;6.952;2024-02-23T04:09:57;4.50;103.03
51305;HTU21D;37392;50.964;6.952;2024-02-23T04:12:23;4.57;102.92
51305;HTU21D;37392;50.964;6.952;2024-02-23T04:14:49;4.68;102.09
51305;HTU21D;37392;50.964;6.952;2024-02-23T04:17:15;4.76;101.70
51305;HTU21D;37392;50.964;6.952;2024-02-23T04:19:42;4.75;101.63
51305;HTU21D;37392;50.964;6.952;2024-02-23T04:22:09;4.75;101.53
51305;HTU21D;37392;50.964;6.952;2024-02-23T04:24:38;4.77;101.36
51305;HTU21D;37392;50.964;6.952;2024-02-23T04:27:07;4.90;100.74
51305;HTU21D;37392;50.964;6.952;2024-02-23T04:29:33;4.97;100.66
51305;HTU21D;37392;50.964;6.952;2024-02-23T04:32:03;4.96;100.90
51305;HTU21D;37392;50.964;6.952;2024-02-23T04:34:29;5.02;100.79
51305;HTU21D;37392;50.964;6.952;2024-02-23T04:36:54;5.04;100.80
51305;HTU21D;37392;50.964;6.952;2024-02-23T04:39:20;5.08;100.35
51305;HTU21D;37392;50.964;6.952;2024-02-23T04:41:46;5.17;99.43
51305;HTU21D;37392;50.964;6.952;2024-02-23T04:44:12;5.25;99.00
51305;HTU21D;37392;50.964;6.952;2024-02-23T04:46:38;5.28;98.59
51305;HTU21D;37392;50.964;6.952;2024-02-23T04:49:03;5.31;98.42
51305;HTU21D;37392;50.964;6.952;2024-02-23T04:51:29;5.28;98.34
51305;HTU21D;37392;50.964;6.952;2024-02-23T04:53:54;5.28;98.37
51305;HTU21D;37392;50.964;6.952;2024-02-23T04:56:20;5.19;98.63
51305;HTU21D;37392;50.964;6.952;2024-02-23T04:58:45;5.15;98.88
51305;HTU21D;37392;50.964;6.952;2024-02-23T05:01:12;5.10;99.29
51305;HTU21D;37392;50.964;6.952;2024-02-23T05:03:38;5.13;98.89
51305;HTU21D;37392;50.964;6.952;2024-02-23T05:06:04;5.18;98.81
51305;HTU21D;37392;50.964;6.952;2024-02-23T05:08:30;5.23;98.97
51305;HTU21D;37392;50.964;6.952;2024-02-23T05:10:56;5.32;98.42
51305;HTU21D;37392;50.964;6.952;2024-02-23T05:13:23;5.33;97.88
51305;HTU21D;37392;50.964;6.952;2024-02-23T05:15:48;5.27;98.23
51305;HTU21D;37392;50.964;6.952;2024-02-23T05:18:14;5.27;98.64
51305;HTU21D;37392;50.964;6.952;2024-02-23T05:20:39;5.23;98.18
51305;HTU21D;37392;50.964;6.952;2024-02-23T05:23:05;5.13;98.16
51305;HTU21D;37392;50.964;6.952;2024-02-23T05:25:31;5.09;98.48
51305;HTU21D;37392;50.964;6.952;2024-02-23T05:27:56;5.06;98.58
51305;HTU21D;37392;50.964;6.952;2024-02-23T05:30:22;4.97;98.91
51305;HTU21D;37392;50.964;6.952;2024-02-23T05:32:48;4.90;99.24
51305;HTU21D;37392;50.964;6.952;2024-02-23T05:35:13;4.83;99.54
51305;HTU21D;37392;50.964;6.952;2024-02-23T05:37:41;4.81;99.43
51305;HTU21D;37392;50.964;6.952;2024-02-23T05:40:07;4.71;99.75
51305;HTU21D;37392;50.964;6.952;2024-02-23T05:42:38;4.71;99.87
51305;HTU21D;37392;50.964;6.952;2024-02-23T05:45:04;4.58;100.35
51305;HTU21D;37392;50.964;6.952;2024-02-23T05:47:35;4.53;100.64
51305;HTU21D;37392;50.964;6.952;2024-02-23T05:50:02;4.41;101.30
51305;HTU21D;37392;50.964;6.952;2024-02-23T05:52:32;4.43;101.25
51305;HTU21D;37392;50.964;6.952;2024-02-23T05:54:58;4.32;101.74
51305;HTU21D;37392;50.964;6.952;2024-02-23T05:57:25;4.29;102.01
51305;HTU21D;37392;50.964;6.952;2024-02-23T05:59:52;4.31;102.12
51305;HTU21D;37392;50.964;6.952;2024-02-23T06:02:17;4.29;102.18
51305;HTU21D;37392;50.964;6.952;2024-02-23T06:04:43;4.24;102.28
51305;HTU21D;37392;50.964;6.952;2024-02-23T06:07:08;4.34;102.02
51305;HTU21D;37392;50.964;6.952;2024-02-23T06:09:34;4.42;101.83
51305;HTU21D;37392;50.964;6.952;2024-02-23T06:12:00;4.48;101.99
51305;HTU21D;37392;50.964;6.952;2024-02-23T06:14:26;4.61;101.54
51305;HTU21D;37392;50.964;6.952;2024-02-23T06:16:52;4.71;101.34
51305;HTU21D;37392;50.964;6.952;2024-02-23T06:19:17;4.84;100.51
51305;HTU21D;37392;50.964;6.952;2024-02-23T06:21:43;4.81;100.32
51305;HTU21D;37392;50.964;6.952;2024-02-23T06:24:08;4.75;100.40
51305;HTU21D;37392;50.964;6.952;2024-02-23T06:26:34;4.54;101.14
51305;HTU21D;37392;50.964;6.952;2024-02-23T06:29:00;4.45;101.72
51305;HTU21D;37392;50.964;6.952;2024-02-23T06:31:26;4.42;102.06
51305;HTU21D;37392;50.964;6.952;2024-02-23T06:33:51;4.37;102.20
51305;HTU21D;37392;50.964;6.952;2024-02-23T06:36:17;4.38;102.41
51305;HTU21D;37392;50.964;6.952;2024-02-23T06:38:44;4.38;102.56
51305;HTU21D;37392;50.964;6.952;2024-02-23T06:41:11;4.37;102.63
51305;HTU21D;37392;50.964;6.952;2024-02-23T06:43:37;4.38;102.57
51305;HTU21D;37392;50.964;6.952;2024-02-23T06:46:07;4.36;103.20
51305;HTU21D;37392;50.964;6.952;2024-02-23T06:48:36;4.48;102.67
51305;HTU21D;37392;50.964;6.952;2024-02-23T06:51:03;4.43;102.63
51305;HTU21D;37392;50.964;6.952;2024-02-23T06:53:29;4.39;102.30
51305;HTU21D;37392;50.964;6.952;2024-02-23T06:55:54;4.30;103.05
51305;HTU21D;37392;50.964;6.952;2024-02-23T06:58:20;4.33;103.25
51305;HTU21D;37392;50.964;6.952;2024-02-23T07:00:46;4.38;103.05
51305;HTU21D;37392;50.964;6.952;2024-02-23T07:03:12;4.43;102.96
51305;HTU21D;37392;50.964;6.952;2024-02-23T07:05:37;4.48;102.72
51305;HTU21D;37392;50.964;6.952;2024-02-23T07:08:03;4.61;102.54
51305;HTU21D;37392;50.964;6.952;2024-02-23T07:10:29;4.77;101.98
51305;HTU21D;37392;50.964;6.952;2024-02-23T07:12:55;4.82;101.67
51305;HTU21D;37392;50.964;6.952;2024-02-23T07:15:23;4.97;100.82
51305;HTU21D;37392;50.964;6.952;2024-02-23T07:17:49;5.08;100.12
51305;HTU21D;37392;50.964;6.952;2024-02-23T07:20:15;5.20;99.66
51305;HTU21D;37392;50.964;6.952;2024-02-23T07:22:44;5.36;99.22
51305;HTU21D;37392;50.964;6.952;2024-02-23T07:25:11;5.51;98.51
51305;HTU21D;37392;50.964;6.952;2024-02-23T07:27:36;5.66;97.50
51305;HTU21D;37392;50.964;6.952;2024-02-23T07:30:02;5.75;97.16
51305;HTU21D;37392;50.964;6.952;2024-02-23T07:32:29;5.81;97.13
51305;HTU21D;37392;50.964;6.952;2024-02-23T07:34:55;5.82;97.09
51305;HTU21D;37392;50.964;6.952;2024-02-23T07:37:21;5.82;96.92
51305;HTU21D;37392;50.964;6.952;2024-02-23T07:39:47;5.82;96.21
51305;HTU21D;37392;50.964;6.952;2024-02-23T07:42:12;6.08;96.62
51305;HTU21D;37392;50.964;6.952;2024-02-23T07:44:40;6.87;95.22
51305;HTU21D;37392;50.964;6.952;2024-02-23T07:47:05;7.68;92.90
51305;HTU21D;37392;50.964;6.952;2024-02-23T07:49:31;8.62;89.22
51305;HTU21D;37392;50.964;6.952;2024-02-23T07:51:57;9.32;85.61
51305;HTU21D;37392;50.964;6.952;2024-02-23T07:54:22;9.82;83.58
51305;HTU21D;37392;50.964;6.952;2024-02-23T07:56:48;10.27;82.03
51305;HTU21D;37392;50.964;6.952;2024-02-23T07:59:13;10.70;80.49
51305;HTU21D;37392;50.964;6.952;2024-02-23T08:01:39;10.94;78.95
51305;HTU21D;37392;50.964;6.952;2024-02-23T08:04:05;11.30;77.31
51305;HTU21D;37392;50.964;6.952;2024-02-23T08:06:31;11.55;76.94
51305;HTU21D;37392;50.964;6.952;2024-02-23T08:08:57;11.83;75.71
51305;HTU21D;37392;50.964;6.952;2024-02-23T08:11:22;11.91;73.95
51305;HTU21D;37392;50.964;6.952;2024-02-23T08:13:47;12.37;73.95
51305;HTU21D;37392;50.964;6.952;2024-02-23T08:16:15;12.49;72.33
51305;HTU21D;37392;50.964;6.952;2024-02-23T08:18:42;12.66;71.66
51305;HTU21D;37392;50.964;6.952;2024-02-23T08:21:09;12.61;70.40
51305;HTU21D;37392;50.964;6.952;2024-02-23T08:23:36;12.59;70.71
51305;HTU21D;37392;50.964;6.952;2024-02-23T08:26:05;12.56;70.79
51305;HTU21D;37392;50.964;6.952;2024-02-23T08:28:35;12.79;69.14
51305;HTU21D;37392;50.964;6.952;2024-02-23T08:31:07;12.74;69.10
51305;HTU21D;37392;50.964;6.952;2024-02-23T08:33:33;12.38;68.98
51305;HTU21D;37392;50.964;6.952;2024-02-23T08:36:01;11.91;70.00
51305;HTU21D;37392;50.964;6.952;2024-02-23T08:38:32;12.03;70.72
51305;HTU21D;37392;50.964;6.952;2024-02-23T08:40:58;12.33;69.76
51305;HTU21D;37392;50.964;6.952;2024-02-23T08:43:24;12.90;68.33
51305;HTU21D;37392;50.964;6.952;2024-02-23T08:45:49;13.34;67.24
51305;HTU21D;37392;50.964;6.952;2024-02-23T08:48:15;13.61;66.56
51305;HTU21D;37392;50.964;6.952;2024-02-23T08:50:41;14.04;64.69
51305;HTU21D;37392;50.964;6.952;2024-02-23T08:53:07;13.97;63.96
51305;HTU21D;37392;50.964;6.952;2024-02-23T08:55:32;13.90;63.67
51305;HTU21D;37392;50.964;6.952;2024-02-23T08:57:58;13.56;63.40
51305;HTU21D;37392;50.964;6.952;2024-02-23T09:00:24;12.97;65.04
51305;HTU21D;37392;50.964;6.952;2024-02-23T09:02:50;12.45;66.32
51305;HTU21D;37392;50.964;6.952;2024-02-23T09:05:15;12.19;68.07
51305;HTU21D;37392;50.964;6.952;2024-02-23T09:07:41;11.82;68.71
51305;HTU21D;37392;50.964;6.952;2024-02-23T09:10:07;11.51;69.95
51305;HTU21D;37392;50.964;6.952;2024-02-23T09:12:33;11.33;70.73
51305;HTU21D;37392;50.964;6.952;2024-02-23T09:14:59;11.18;71.16
51305;HTU21D;37392;50.964;6.952;2024-02-23T09:17:24;11.20;72.16
51305;HTU21D;37392;50.964;6.952;2024-02-23T09:19:50;11.08;72.11
51305;HTU21D;37392;50.964;6.952;2024-02-23T09:22:16;11.01;72.29
51305;HTU21D;37392;50.964;6.952;2024-02-23T09:24:42;11.00;71.94
51305;HTU21D;37392;50.964;6.952;2024-02-23T09:27:08;10.90;72.32
51305;HTU21D;37392;50.964;6.952;2024-02-23T09:29:34;10.77;72.81
51305;HTU21D;37392;50.964;6.952;2024-02-23T09:32:00;10.78;72.78
51305;HTU21D;37392;50.964;6.952;2024-02-23T09:34:26;10.73;72.54
51305;HTU21D;37392;50.964;6.952;2024-02-23T09:36:52;10.95;72.80
51305;HTU21D;37392;50.964;6.952;2024-02-23T09:39:17;11.11;71.98
51305;HTU21D;37392;50.964;6.952;2024-02-23T09:41:43;11.99;71.45
51305;HTU21D;37392;50.964;6.952;2024-02-23T09:44:09;13.07;67.95
51305;HTU21D;37392;50.964;6.952;2024-02-23T09:46:36;13.96;64.79
51305;HTU21D;37392;50.964;6.952;2024-02-23T09:49:03;14.62;61.49
51305;HTU21D;37392;50.964;6.952;2024-02-23T09:51:29;14.47;61.04
51305;HTU21D;37392;50.964;6.952;2024-02-23T09:53:55;13.96;61.90
51305;HTU21D;37392;50.964;6.952;2024-02-23T09:56:27;13.44;62.57
51305;HTU21D;37392;50.964;6.952;2024-02-23T09:58:55;13.10;63.78
51305;HTU21D;37392;50.964;6.952;2024-02-23T10:01:30;12.64;64.37
51305;HTU21D;37392;50.964;6.952;2024-02-23T10:03:58;12.51;65.48
51305;HTU21D;37392;50.964;6.952;2024-02-23T10:06:25;12.31;66.39
51305;HTU21D;37392;50.964;6.952;2024-02-23T10:08:51;12.15;66.71
51305;HTU21D;37392;50.964;6.952;2024-02-23T10:11:20;11.91;67.75
51305;HTU21D;37392;50.964;6.952;2024-02-23T10:13:50;11.86;67.37
51305;HTU21D;37392;50.964;6.952;2024-02-23T10:16:20;11.74;67.28
51305;HTU21D;37392;50.964;6.952;2024-02-23T10:18:48;11.74;67.80
51305;HTU21D;37392;50.964;6.952;2024-02-23T10:21:15;11.85;68.13
51305;HTU21D;37392;50.964;6.952;2024-02-23T10:23:41;12.06;67.07
51305;HTU21D;37392;50.964;6.952;2024-02-23T10:26:07;12.01;67.39
51305;HTU21D;37392;50.964;6.952;2024-02-23T10:28:35;11.89;67.53
51305;HTU21D;37392;50.964;6.952;2024-02-23T10:31:05;11.66;67.84
51305;HTU21D;37392;50.964;6.952;2024-02-23T10:33:31;11.68;67.88
51305;HTU21D;37392;50.964;6.952;2024-02-23T10:35:57;11.86;67.99
51305;HTU21D;37392;50.964;6.952;2024-02-23T10:38:23;11.76;67.89
51305;HTU21D;37392;50.964;6.952;2024-02-23T10:40:50;11.81;68.31
51305;HTU21D;37392;50.964;6.952;2024-02-23T10:43:29;11.96;68.57
51305;HTU21D;37392;50.964;6.952;2024-02-23T10:45:57;11.96;68.58
51305;HTU21D;37392;50.964;6.952;2024-02-23T10:48:24;11.71;68.42
51305;HTU21D;37392;50.964;6.952;2024-02-23T10:50:50;11.68;69.64
51305;HTU21D;37392;50.964;6.952;2024-02-23T10:53:16;11.76;69.81
51305;HTU21D;37392;50.964;6.952;2024-02-23T10:55:45;11.87;69.66
51305;HTU21D;37392;50.964;6.952;2024-02-23T10:58:11;12.06;69.13
51305;HTU21D;37392;50.964;6.952;2024-02-23T11:00:39;12.21;68.56
51305;HTU21D;37392;50.964;6.952;2024-02-23T11:03:05;12.12;67.95
51305;HTU21D;37392;50.964;6.952;2024-02-23T11:05:34;11.90;68.68
51305;HTU21D;37392;50.964;6.952;2024-02-23T11:08:00;11.90;69.26
51305;HTU21D;37392;50.964;6.952;2024-02-23T11:10:25;11.57;69.39
51305;HTU21D;37392;50.964;6.952;2024-02-23T11:13:00;11.53;70.00
51305;HTU21D;37392;50.964;6.952;2024-02-23T11:15:27;11.43;70.02
51305;HTU21D;37392;50.964;6.952;2024-02-23T11:17:53;11.38;70.69
51305;HTU21D;37392;50.964;6.952;2024-02-23T11:20:20;11.03;70.93
51305;HTU21D;37392;50.964;6.952;2024-02-23T11:22:52;11.10;71.42
51305;HTU21D;37392;50.964;6.952;2024-02-23T11:25:26;11.26;71.50
51305;HTU21D;37392;50.964;6.952;2024-02-23T11:27:52;11.34;71.40
51305;HTU21D;37392;50.964;6.952;2024-02-23T11:30:18;11.43;71.52
51305;HTU21D;37392;50.964;6.952;2024-02-23T11:32:46;11.49;70.84
51305;HTU21D;37392;50.964;6.952;2024-02-23T11:35:16;11.67;70.40
51305;HTU21D;37392;50.964;6.952;2024-02-23T11:37:47;11.76;69.75
51305;HTU21D;37392;50.964;6.952;2024-02-23T11:40:16;11.79;69.67
51305;HTU21D;37392;50.964;6.952;2024-02-23T11:42:42;11.84;69.01
51305;HTU21D;37392;50.964;6.952;2024-02-23T11:45:09;11.85;68.88
51305;HTU21D;37392;50.964;6.952;2024-02-23T11:47:36;11.86;68.55
51305;HTU21D;37392;50.964;6.952;2024-02-23T11:50:03;11.68;68.10
51305;HTU21D;37392;50.964;6.952;2024-02-23T11:52:31;11.68;68.23
51305;HTU21D;37392;50.964;6.952;2024-02-23T11:54:57;11.68;67.82
51305;HTU21D;37392;50.964;6.952;2024-02-23T11:57:24;11.70;67.50
51305;HTU21D;37392;50.964;6.952;2024-02-23T11:59:51;11.69;67.27
51305;HTU21D;37392;50.964;6.952;2024-02-23T12:02:17;11.51;67.45
51305;HTU21D;37392;50.964;6.952;2024-02-23T12:04:43;11.46;68.19
51305;HTU21D;37392;50.964;6.952;2024-02-23T12:07:09;11.46;68.44
51305;HTU21D;37392;50.964;6.952;2024-02-23T12:09:35;11.34;68.34
51305;HTU21D;37392;50.964;6.952;2024-02-23T12:12:00;11.23;68.17
51305;HTU21D;37392;50.964;6.952;2024-02-23T12:14:26;11.14;68.54
51305;HTU21D;37392;50.964;6.952;2024-02-23T12:16:52;10.98;68.60
51305;HTU21D;37392;50.964;6.952;2024-02-23T12:19:18;10.95;69.33
51305;HTU21D;37392;50.964;6.952;2024-02-23T12:21:46;11.03;69.59
51305;HTU21D;37392;50.964;6.952;2024-02-23T12:24:12;11.09;69.66
51305;HTU21D;37392;50.964;6.952;2024-02-23T12:26:38;11.07;69.65
51305;HTU21D;37392;50.964;6.952;2024-02-23T12:29:04;11.15;69.68
51305;HTU21D;37392;50.964;6.952;2024-02-23T12:31:32;11.18;69.65
51305;HTU21D;37392;50.964;6.952;2024-02-23T12:33:57;11.23;69.97
51305;HTU21D;37392;50.964;6.952;2024-02-23T12:36:23;11.25;70.43
51305;HTU21D;37392;50.964;6.952;2024-02-23T12:38:49;11.20;70.13
51305;HTU21D;37392;50.964;6.952;2024-02-23T12:41:15;11.17;69.81
51305;HTU21D;37392;50.964;6.952;2024-02-23T12:43:40;11.28;70.14
51305;HTU21D;37392;50.964;6.952;2024-02-23T12:46:06;11.43;69.37
51305;HTU21D;37392;50.964;6.952;2024-02-23T12:48:33;11.58;69.07
51305;HTU21D;37392;50.964;6.952;2024-02-23T12:50:59;11.75;69.24
51305;HTU21D;37392;50.964;6.952;2024-02-23T12:53:33;11.75;68.35
51305;HTU21D;37392;50.964;6.952;2024-02-23T12:56:09;11.85;68.24
51305;HTU21D;37392;50.964;6.952;2024-02-23T12:58:39;11.70;67.76
51305;HTU21D;37392;50.964;6.952;2024-02-23T13:01:06;11.73;68.20
51305;HTU21D;37392;50.964;6.952;2024-02-23T13:03:32;11.63;67.74
51305;HTU21D;37392;50.964;6.952;2024-02-23T13:05:58;11.77;67.66
51305;HTU21D;37392;50.964;6.952;2024-02-23T13:08:25;11.89;67.84
51305;HTU21D;37392;50.964;6.952;2024-02-23T13:10:52;12.06;67.78
51305;HTU21D;37392;50.964;6.952;2024-02-23T13:13:19;12.06;67.88
51305;HTU21D;37392;50.964;6.952;2024-02-23T13:15:46;12.10;67.45
51305;HTU21D;37392;50.964;6.952;2024-02-23T13:18:12;12.07;67.27
51305;HTU21D;37392;50.964;6.952;2024-02-23T13:20:38;12.06;67.52
51305;HTU21D;37392;50.964;6.952;2024-02-23T13:23:05;11.92;67.24
51305;HTU21D;37392;50.964;6.952;2024-02-23T13:25:34;11.90;67.50
51305;HTU21D;37392;50.964;6.952;2024-02-23T13:28:00;11.75;68.04
51305;HTU21D;37392;50.964;6.952;2024-02-23T13:30:25;11.94;69.15
51305;HTU21D;37392;50.964;6.952;2024-02-23T13:32:52;12.21;68.10
51305;HTU21D;37392;50.964;6.952;2024-02-23T13:35:18;12.21;67.37
51305;HTU21D;37392;50.964;6.952;2024-02-23T13:37:44;12.06;67.56
51305;HTU21D;37392;50.964;6.952;2024-02-23T13:40:10;11.98;68.17
51305;HTU21D;37392;50.964;6.952;2024-02-23T13:42:39;11.84;67.78
51305;HTU21D;37392;50.964;6.952;2024-02-23T13:45:08;11.79;67.79
51305;HTU21D;37392;50.964;6.952;2024-02-23T13:47:35;11.78;67.06
51305;HTU21D;37392;50.964;6.952;2024-02-23T13:50:01;11.91;67.68
51305;HTU21D;37392;50.964;6.952;2024-02-23T13:52:27;11.88;67.18
51305;HTU21D;37392;50.964;6.952;2024-02-23T13:54:53;11.76;66.72
51305;HTU21D;37392;50.964;6.952;2024-02-23T13:57:19;11.78;66.44
51305;HTU21D;37392;50.964;6.952;2024-02-23T13:59:45;11.78;66.72
51305;HTU21D;37392;50.964;6.952;2024-02-23T14:02:12;11.87;67.37
51305;HTU21D;37392;50.964;6.952;2024-02-23T14:04:37;11.86;67.40
51305;HTU21D;37392;50.964;6.952;2024-02-23T14:07:03;11.68;67.72
51305;HTU21D;37392;50.964;6.952;2024-02-23T14:09:29;11.53;68.80
51305;HTU21D;37392;50.964;6.952;2024-02-23T14:11:55;11.58;68.46
51305;HTU21D;37392;50.964;6.952;2024-02-23T14:14:21;11.55;68.58
51305;HTU21D;37392;50.964;6.952;2024-02-23T14:16:48;11.69;68.97
51305;HTU21D;37392;50.964;6.952;2024-02-23T14:19:13;11.76;68.78
51305;HTU21D;37392;50.964;6.952;2024-02-23T14:21:39;11.84;68.33
51305;HTU21D;37392;50.964;6.952;2024-02-23T14:24:04;11.89;68.07
51305;HTU21D;37392;50.964;6.952;2024-02-23T14:26:30;12.02;67.52
51305;HTU21D;37392;50.964;6.952;2024-02-23T14:28:56;11.96;67.53
51305;HTU21D;37392;50.964;6.952;2024-02-23T14:31:22;11.89;67.63
51305;HTU21D;37392;50.964;6.952;2024-02-23T14:33:47;11.78;67.65
51305;HTU21D;37392;50.964;6.952;2024-02-23T14:36:16;11.75;67.58
51305;HTU21D;37392;50.964;6.952;2024-02-23T14:38:42;11.66;67.92
51305;HTU21D;37392;50.964;6.952;2024-02-23T14:41:08;11.57;68.78
51305;HTU21D;37392;50.964;6.952;2024-02-23T14:43:35;11.43;69.13
51305;HTU21D;37392;50.964;6.952;2024-02-23T14:46:02;11.43;69.97
51305;HTU21D;37392;50.964;6.952;2024-02-23T14:48:27;11.44;70.22
51305;HTU21D;37392;50.964;6.952;2024-02-23T14:50:53;11.47;70.58
51305;HTU21D;37392;50.964;6.952;2024-02-23T14:53:19;11.44;70.27
51305;HTU21D;37392;50.964;6.952;2024-02-23T14:55:44;11.33;70.06
51305;HTU21D;37392;50.964;6.952;2024-02-23T14:58:10;11.32;70.21
51305;HTU21D;37392;50.964;6.952;2024-02-23T15:00:35;11.17;70.16
51305;HTU21D;37392;50.964;6.952;2024-02-23T15:03:02;11.11;70.07
51305;HTU21D;37392;50.964;6.952;2024-02-23T15:05:28;11.02;70.52
51305;HTU21D;37392;50.964;6.952;2024-02-23T15:07:54;11.00;71.03
51305;HTU21D;37392;50.964;6.952;2024-02-23T15:10:20;10.92;70.81
51305;HTU21D;37392;50.964;6.952;2024-02-23T15:12:46;10.93;71.16